createdAt,value
2023-04-15T00:01:49.465Z,6.87
2023-04-15T00:04:17.367Z,6.60
2023-04-15T00:06:51.805Z,6.63
2023-04-15T00:09:19.727Z,5.50
2023-04-15T00:11:47.678Z,5.43
2023-04-15T00:14:15.567Z,5.00
2023-04-15T00:16:43.328Z,4.77
2023-04-15T00:19:12.380Z,4.70
2023-04-15T00:21:40.243Z,4.43
2023-04-15T00:24:08.375Z,4.90
2023-04-15T00:26:36.204Z,4.83
2023-04-15T00:29:04.370Z,5.07
2023-04-15T00:31:32.938Z,4.93
2023-04-15T00:34:00.771Z,4.67
2023-04-15T00:36:29.896Z,5.30
2023-04-15T00:38:57.791Z,4.83
2023-04-15T00:41:25.734Z,4.97
2023-04-15T00:43:54.259Z,5.50
2023-04-15T00:46:22.383Z,5.50
2023-04-15T00:48:50.213Z,5.27
2023-04-15T00:51:17.930Z,5.47
2023-04-15T00:53:47.123Z,5.37
2023-04-15T00:56:15.160Z,6.00
2023-04-15T00:58:43.334Z,6.13
2023-04-15T01:01:11.522Z,5.50
2023-04-15T01:03:39.388Z,5.73
2023-04-15T01:06:07.621Z,5.27
2023-04-15T01:08:35.516Z,6.00
2023-04-15T01:11:04.909Z,5.63
2023-04-15T01:13:37.307Z,5.90
2023-04-15T01:16:05.367Z,6.20
2023-04-15T01:18:33.420Z,5.97
2023-04-15T01:21:03.684Z,6.50
2023-04-15T01:23:31.551Z,6.20
2023-04-15T01:26:01.005Z,6.23
2023-04-15T01:28:28.891Z,6.03
2023-04-15T01:31:08.007Z,5.73
2023-04-15T01:33:36.654Z,7.03
2023-04-15T01:36:05.306Z,6.07
2023-04-15T01:38:33.541Z,6.60
2023-04-15T01:41:02.945Z,6.57
2023-04-15T01:43:30.765Z,6.50
2023-04-15T01:45:58.493Z,7.50
2023-04-15T01:48:27.341Z,7.27
2023-04-15T01:50:57.620Z,7.70
2023-04-15T01:53:25.770Z,8.10
2023-04-15T01:55:53.787Z,8.50
2023-04-15T01:58:23.068Z,8.37
2023-04-15T02:00:50.864Z,9.17
2023-04-15T02:03:19.013Z,8.77
2023-04-15T02:05:46.847Z,8.53
2023-04-15T02:08:14.569Z,9.30
2023-04-15T02:10:42.308Z,9.00
2023-04-15T02:13:10.871Z,9.03
2023-04-15T02:15:39.913Z,8.73
2023-04-15T02:18:07.729Z,9.30
2023-04-15T02:20:36.346Z,8.30
2023-04-15T02:23:07.296Z,9.43
2023-04-15T02:25:35.001Z,9.33
2023-04-15T02:28:02.725Z,9.13
2023-04-15T02:30:30.428Z,8.80
2023-04-15T02:32:59.510Z,8.80
2023-04-15T02:35:27.787Z,9.10
2023-04-15T02:37:55.519Z,8.83
2023-04-15T02:40:23.528Z,8.37
2023-04-15T02:42:51.243Z,8.13
2023-04-15T02:45:23.634Z,8.90
2023-04-15T02:47:51.490Z,8.07
2023-04-15T02:50:21.009Z,8.43
2023-04-15T02:52:48.723Z,8.20
2023-04-15T02:55:17.990Z,8.53
2023-04-15T02:57:45.765Z,8.27
2023-04-15T03:00:14.902Z,8.17
2023-04-15T03:02:43.223Z,8.37
2023-04-15T03:05:13.939Z,8.33
2023-04-15T03:07:43.034Z,7.80
2023-04-15T03:10:11.764Z,8.70
2023-04-15T03:12:39.501Z,8.50
2023-04-15T03:15:08.549Z,8.90
2023-04-15T03:17:36.482Z,9.00
2023-04-15T03:20:05.249Z,9.17
2023-04-15T03:22:33.327Z,8.23
2023-04-15T03:25:02.451Z,7.83
2023-04-15T03:27:30.090Z,8.67
2023-04-15T03:29:57.863Z,8.73
2023-04-15T03:32:25.884Z,8.33
2023-04-15T03:34:53.606Z,8.93
2023-04-15T03:37:21.616Z,9.60
2023-04-15T03:39:49.389Z,9.03
2023-04-15T03:42:18.509Z,8.90
2023-04-15T03:44:46.664Z,8.93
2023-04-15T03:47:14.347Z,9.47
2023-04-15T03:49:42.129Z,8.70
2023-04-15T03:52:09.878Z,10.20
2023-04-15T03:54:37.776Z,9.97
2023-04-15T03:57:05.788Z,10.23
2023-04-15T03:59:34.881Z,11.67
2023-04-15T04:02:02.742Z,11.43
2023-04-15T04:04:30.584Z,10.13
2023-04-15T04:06:58.321Z,11.27
2023-04-15T04:09:25.981Z,11.23
2023-04-15T04:11:53.652Z,10.60
2023-04-15T04:14:21.411Z,11.33
2023-04-15T04:16:50.857Z,11.30
2023-04-15T04:19:19.966Z,11.10
2023-04-15T04:21:47.772Z,10.73
2023-04-15T04:24:15.799Z,10.10
2023-04-15T04:26:43.653Z,11.17
2023-04-15T04:29:11.640Z,11.30
2023-04-15T04:31:39.611Z,11.80
2023-04-15T04:34:08.752Z,11.33
2023-04-15T04:36:36.657Z,11.93
2023-04-15T04:39:04.594Z,11.60
2023-04-15T04:41:32.344Z,11.87
2023-04-15T04:44:00.204Z,13.63
2023-04-15T04:46:27.956Z,11.47
2023-04-15T04:48:55.852Z,12.83
2023-04-15T04:51:26.389Z,12.47
2023-04-15T04:53:54.192Z,11.80
2023-04-15T04:56:21.922Z,12.57
2023-04-15T04:58:49.622Z,12.67
2023-04-15T05:01:17.453Z,11.33
2023-04-15T05:03:45.558Z,12.73
2023-04-15T05:06:13.415Z,12.53
2023-04-15T05:08:42.561Z,12.47
2023-04-15T05:11:10.296Z,12.60
2023-04-15T05:13:39.108Z,13.40
2023-04-15T05:16:07.568Z,13.67
2023-04-15T05:18:35.297Z,12.97
2023-04-15T05:21:03.790Z,14.47
2023-04-15T05:23:31.544Z,15.00
2023-04-15T05:26:00.678Z,14.47
2023-04-15T05:28:28.444Z,14.90
2023-04-15T05:30:56.389Z,14.60
2023-04-15T05:33:24.423Z,16.57
2023-04-15T05:35:52.116Z,16.47
2023-04-15T05:38:19.823Z,16.70
2023-04-15T05:40:47.531Z,18.90
2023-04-15T05:43:16.615Z,18.03
2023-04-15T05:45:44.375Z,17.40
2023-04-15T05:48:12.081Z,17.80
2023-04-15T05:50:42.165Z,17.67
2023-04-15T05:53:09.981Z,20.17
2023-04-15T05:55:37.721Z,19.40
2023-04-15T05:58:05.386Z,19.47
2023-04-15T06:00:34.606Z,19.13
2023-04-15T06:03:02.445Z,20.33
2023-04-15T06:05:30.232Z,19.73
2023-04-15T06:07:57.910Z,20.07
2023-04-15T06:10:25.751Z,20.63
2023-04-15T06:12:54.141Z,21.07
2023-04-15T06:15:22.094Z,20.63
2023-04-15T06:17:51.489Z,20.80
2023-04-15T06:20:19.474Z,20.00
2023-04-15T06:22:47.213Z,19.70
2023-04-15T06:25:15.130Z,22.23
2023-04-15T06:27:42.814Z,22.60
2023-04-15T06:30:11.332Z,21.70
2023-04-15T06:32:39.316Z,22.37
2023-04-15T06:35:09.000Z,23.83
2023-04-15T06:37:36.719Z,23.83
2023-04-15T06:40:05.215Z,23.60
2023-04-15T06:42:34.024Z,23.30
2023-04-15T06:45:01.884Z,26.63
2023-04-15T06:47:29.669Z,25.23
2023-04-15T06:49:57.375Z,25.10
2023-04-15T06:52:26.464Z,27.00
2023-04-15T06:54:54.173Z,26.93
2023-04-15T06:57:21.953Z,27.90
2023-04-15T06:59:49.627Z,28.90
2023-04-15T07:02:17.477Z,30.00
2023-04-15T07:04:45.211Z,28.07
2023-04-15T07:07:13.382Z,28.73
2023-04-15T07:09:42.862Z,30.10
2023-04-15T07:12:10.554Z,29.43
2023-04-15T07:14:38.208Z,29.80
2023-04-15T07:17:06.044Z,31.27
2023-04-15T07:19:33.769Z,30.93
2023-04-15T07:22:02.248Z,29.83
2023-04-15T07:24:30.139Z,32.10
2023-04-15T07:27:00.862Z,31.83
2023-04-15T07:29:29.065Z,32.37
2023-04-15T07:31:57.325Z,31.80
2023-04-15T07:34:25.128Z,32.20
2023-04-15T07:36:52.812Z,33.73
2023-04-15T07:39:20.530Z,33.43
2023-04-15T07:41:49.043Z,32.03
2023-04-15T07:44:18.140Z,32.27
2023-04-15T07:46:46.061Z,34.70
2023-04-15T07:49:14.505Z,32.93
2023-04-15T07:51:42.218Z,31.00
2023-04-15T07:54:10.035Z,31.80
2023-04-15T07:56:37.864Z,33.40
2023-04-15T07:59:06.527Z,33.03
2023-04-15T08:01:35.758Z,33.23
2023-04-15T08:04:03.836Z,34.70
2023-04-15T08:06:33.000Z,35.87
2023-04-15T08:09:01.091Z,33.63
2023-04-15T08:11:29.187Z,34.97
2023-04-15T08:13:56.942Z,34.27
2023-04-15T08:16:25.995Z,32.60
2023-04-15T08:18:57.659Z,37.27
2023-04-15T08:21:25.850Z,33.83
2023-04-15T08:23:54.477Z,33.97
2023-04-15T08:26:22.802Z,36.03
2023-04-15T08:28:51.221Z,37.83
2023-04-15T08:31:20.183Z,36.13
2023-04-15T08:33:48.023Z,35.37
2023-04-15T08:36:17.634Z,36.93
2023-04-15T08:38:46.205Z,36.10
2023-04-15T08:41:22.817Z,36.67
2023-04-15T08:43:54.793Z,37.03
2023-04-15T08:46:23.153Z,36.93
2023-04-15T08:48:51.384Z,36.27
2023-04-15T08:51:23.772Z,38.07
2023-04-15T08:53:52.750Z,37.30
2023-04-15T08:56:23.275Z,37.87
2023-04-15T08:58:52.205Z,35.63
2023-04-15T09:01:20.467Z,38.70
2023-04-15T09:03:50.209Z,37.20
2023-04-15T09:06:18.564Z,38.63
2023-04-15T09:08:47.628Z,38.40
2023-04-15T09:11:15.414Z,38.80
2023-04-15T09:13:43.154Z,38.23
2023-04-15T09:16:11.124Z,37.03
2023-04-15T09:18:40.005Z,38.53
2023-04-15T09:21:09.415Z,38.87
2023-04-15T09:23:37.321Z,39.57
2023-04-15T09:26:07.116Z,39.13
2023-04-15T09:28:42.278Z,39.17
2023-04-15T09:31:10.580Z,40.17
2023-04-15T09:33:56.155Z,39.03
2023-04-15T09:36:25.127Z,39.30
2023-04-15T09:38:57.392Z,37.53
2023-04-15T09:41:26.771Z,38.83
2023-04-15T09:43:54.528Z,35.57
2023-04-15T09:46:22.617Z,38.63
2023-04-15T09:49:08.757Z,37.67
2023-04-15T09:51:37.406Z,36.37
2023-04-15T09:54:05.215Z,37.10
2023-04-15T09:56:37.816Z,36.27
2023-04-15T09:59:06.404Z,36.20
2023-04-15T10:01:34.363Z,35.67
2023-04-15T10:04:05.224Z,35.00
2023-04-15T10:06:33.574Z,34.37
2023-04-15T10:09:01.968Z,36.40
2023-04-15T10:11:31.819Z,36.93
2023-04-15T10:14:02.242Z,33.67
2023-04-15T10:16:31.503Z,36.23
2023-04-15T10:19:02.420Z,29.37
2023-04-15T10:21:32.176Z,36.90
2023-04-15T10:24:02.382Z,35.83
2023-04-15T10:26:30.981Z,33.77
2023-04-15T10:29:00.116Z,34.73
2023-04-15T10:31:30.834Z,34.70
2023-04-15T10:34:04.097Z,30.47
2023-04-15T10:36:32.196Z,32.73
2023-04-15T10:39:18.477Z,32.93
2023-04-15T10:41:46.368Z,31.60
2023-04-15T10:44:14.077Z,32.27
2023-04-15T10:46:44.525Z,32.53
2023-04-15T10:49:13.730Z,30.73
2023-04-15T10:51:42.970Z,31.90
2023-04-15T10:54:15.127Z,32.57
2023-04-15T10:56:43.951Z,30.33
2023-04-15T10:59:12.011Z,30.87
2023-04-15T11:01:54.308Z,29.63
2023-04-15T11:04:57.492Z,30.17
2023-04-15T11:07:38.787Z,26.47
2023-04-15T11:10:51.508Z,26.63
2023-04-15T11:13:22.878Z,27.27
2023-04-15T11:15:51.909Z,28.73
2023-04-15T11:18:22.594Z,29.73
2023-04-15T11:20:52.131Z,28.67
2023-04-15T11:23:21.290Z,29.07
2023-04-15T11:25:49.458Z,27.87
2023-04-15T11:28:17.303Z,28.97
2023-04-15T11:30:45.499Z,26.20
2023-04-15T11:33:14.103Z,26.47
2023-04-15T11:35:44.049Z,27.60
2023-04-15T11:38:13.682Z,26.37
2023-04-15T11:40:43.807Z,24.17
2023-04-15T11:43:15.959Z,24.67
2023-04-15T11:45:52.666Z,23.63
2023-04-15T11:48:22.097Z,23.30
2023-04-15T11:50:56.937Z,24.17
2023-04-15T11:53:26.021Z,24.33
2023-04-15T11:55:54.888Z,23.33
2023-04-15T11:58:24.437Z,23.17
2023-04-15T12:00:54.158Z,23.57
2023-04-15T12:03:27.877Z,21.47
2023-04-15T12:06:19.227Z,16.70
2023-04-15T12:09:08.493Z,14.87
2023-04-15T12:11:42.495Z,15.37
2023-04-15T12:14:17.656Z,14.90
2023-04-15T12:16:49.941Z,14.33
2023-04-15T12:19:25.859Z,14.47
2023-04-15T12:22:00.708Z,13.23
2023-04-15T12:24:29.044Z,13.50
2023-04-15T12:26:58.301Z,14.23
2023-04-15T12:29:28.703Z,13.27
2023-04-15T12:31:58.239Z,11.33
2023-04-15T12:34:30.663Z,12.40
2023-04-15T12:37:01.369Z,11.83
2023-04-15T12:39:31.394Z,12.87
2023-04-15T12:42:00.215Z,11.80
2023-04-15T12:44:28.917Z,12.10
2023-04-15T12:46:57.029Z,11.70
2023-04-15T12:49:25.637Z,11.17
2023-04-15T12:51:54.817Z,11.63
2023-04-15T12:54:23.996Z,11.00
2023-04-15T12:56:52.765Z,10.73
2023-04-15T12:59:20.554Z,11.03
2023-04-15T13:01:49.127Z,12.57
2023-04-15T13:04:17.449Z,11.67
2023-04-15T13:06:45.404Z,11.10
2023-04-15T13:09:13.149Z,11.10
2023-04-15T13:11:42.267Z,9.70
2023-04-15T13:14:11.603Z,10.43
2023-04-15T13:16:39.859Z,10.53
2023-04-15T13:19:07.983Z,9.40
2023-04-15T13:21:36.351Z,9.93
2023-04-15T13:24:07.140Z,10.50
2023-04-15T13:26:35.141Z,10.47
2023-04-15T13:29:04.579Z,9.93
2023-04-15T13:31:32.525Z,10.47
2023-04-15T13:34:01.671Z,10.23
2023-04-15T13:36:29.486Z,10.90
2023-04-15T13:38:57.821Z,11.40
2023-04-15T13:41:25.660Z,10.73
2023-04-15T13:43:53.421Z,11.53
2023-04-15T13:46:22.562Z,11.17
2023-04-15T13:48:50.287Z,10.90
2023-04-15T13:51:18.053Z,10.30
2023-04-15T13:53:45.775Z,10.47
2023-04-15T13:56:13.505Z,10.07
2023-04-15T13:58:42.399Z,9.87
2023-04-15T14:01:10.237Z,10.50
2023-04-15T14:03:39.514Z,9.60
2023-04-15T14:06:07.943Z,9.83
2023-04-15T14:08:35.706Z,9.03
2023-04-15T14:11:03.618Z,9.23
2023-04-15T14:13:31.404Z,9.27
2023-04-15T14:15:59.337Z,9.07
2023-04-15T14:18:27.249Z,9.80
2023-04-15T14:20:56.306Z,9.40
2023-04-15T14:23:24.658Z,9.83
2023-04-15T14:25:52.773Z,9.07
2023-04-15T14:28:20.473Z,10.10
2023-04-15T14:30:48.281Z,9.30
2023-04-15T14:33:16.227Z,8.97
2023-04-15T14:35:44.062Z,7.77
2023-04-15T14:38:13.281Z,9.00
2023-04-15T14:40:42.405Z,8.90
2023-04-15T14:43:10.205Z,8.27
2023-04-15T14:45:41.836Z,8.20
2023-04-15T14:48:12.721Z,9.07
2023-04-15T14:50:41.359Z,7.53
2023-04-15T14:53:09.127Z,8.65
2023-04-15T14:55:38.292Z,8.37
2023-04-15T14:58:06.105Z,9.10
2023-04-15T15:00:34.246Z,9.30
2023-04-15T15:03:02.168Z,8.37
2023-04-15T15:05:30.170Z,8.07
2023-04-15T15:07:57.989Z,8.00
2023-04-15T15:10:32.685Z,7.40
2023-04-15T15:13:14.484Z,9.10
2023-04-15T15:15:42.347Z,7.97
2023-04-15T15:18:10.265Z,9.13
2023-04-15T15:20:38.203Z,7.13
2023-04-15T15:23:05.879Z,8.40
2023-04-15T15:25:33.595Z,8.20
2023-04-15T15:28:01.246Z,8.70
2023-04-15T15:30:30.616Z,7.47
2023-04-15T15:32:58.399Z,7.93
2023-04-15T15:35:26.975Z,8.27
2023-04-15T15:37:55.005Z,8.30
2023-04-15T15:40:22.837Z,8.83
2023-04-15T15:42:51.055Z,9.00
2023-04-15T15:45:19.054Z,8.90
2023-04-15T15:47:48.538Z,8.60
2023-04-15T15:50:16.386Z,8.27
2023-04-15T15:52:44.206Z,8.40
2023-04-15T15:55:11.981Z,8.37
2023-04-15T15:57:39.663Z,7.97
2023-04-15T16:00:12.131Z,8.07
2023-04-15T16:05:12.669Z,8.73
2023-04-15T16:07:40.493Z,9.33
2023-04-15T16:10:09.266Z,8.33
2023-04-15T16:12:37.052Z,10.03
2023-04-15T16:15:05.333Z,8.30
2023-04-15T16:17:33.739Z,9.70
2023-04-15T16:20:05.394Z,9.43
2023-04-15T16:22:35.909Z,9.83
2023-04-15T16:25:03.811Z,9.60
2023-04-15T16:27:31.638Z,9.53
2023-04-15T16:29:59.394Z,10.60
2023-04-15T16:32:27.484Z,10.43
2023-04-15T16:34:55.340Z,9.97
2023-04-15T16:37:23.160Z,9.23
2023-04-15T16:39:52.299Z,9.23
2023-04-15T16:42:20.084Z,10.00
2023-04-15T16:44:47.830Z,9.50
2023-04-15T16:47:15.520Z,10.87
2023-04-15T16:49:43.439Z,10.10
2023-04-15T16:52:11.330Z,9.87
2023-04-15T16:54:41.401Z,10.07
2023-04-15T16:57:10.614Z,10.67
2023-04-15T16:59:39.151Z,10.43
2023-04-15T17:02:07.294Z,11.40
2023-04-15T17:04:35.913Z,11.17
2023-04-15T17:07:04.109Z,12.23
2023-04-15T17:09:31.851Z,11.20
2023-04-15T17:11:59.573Z,10.60
2023-04-15T17:14:29.631Z,11.63
2023-04-15T17:16:57.360Z,12.40
2023-04-15T17:19:26.730Z,12.03
2023-04-15T17:21:55.185Z,12.73
2023-04-15T17:24:23.203Z,11.67
2023-04-15T17:26:51.031Z,11.33
2023-04-15T17:29:18.761Z,12.20
2023-04-15T17:31:47.833Z,12.60
2023-04-15T17:34:16.169Z,12.07
2023-04-15T17:36:44.282Z,12.17
2023-04-15T17:39:14.039Z,12.90
2023-04-15T17:41:41.768Z,13.00
2023-04-15T17:44:09.521Z,13.23
2023-04-15T17:46:37.327Z,13.80
2023-04-15T17:49:06.774Z,14.03
2023-04-15T17:51:34.743Z,14.00
2023-04-15T17:54:02.590Z,14.17
2023-04-15T17:56:30.548Z,14.47
2023-04-15T17:58:58.852Z,14.87
2023-04-15T18:01:26.597Z,15.80
2023-04-15T18:03:54.624Z,15.70
2023-04-15T18:06:24.085Z,15.10
2023-04-15T18:08:52.690Z,15.50
2023-04-15T18:11:20.487Z,16.63
2023-04-15T18:13:48.158Z,14.90
2023-04-15T18:16:16.142Z,16.13
2023-04-15T18:18:44.019Z,15.97
2023-04-15T18:21:13.715Z,17.33
2023-04-15T18:23:43.027Z,16.00
2023-04-15T18:26:11.060Z,17.27
2023-04-15T18:28:39.823Z,16.57
2023-04-15T18:31:07.574Z,15.67
2023-04-15T18:33:35.958Z,16.93
2023-04-15T18:36:03.994Z,16.77
2023-04-15T18:38:32.010Z,16.53
2023-04-15T18:41:01.107Z,15.80
2023-04-15T18:43:28.873Z,15.93
2023-04-15T18:45:56.719Z,16.57
2023-04-15T18:48:24.572Z,16.63
2023-04-15T18:50:54.108Z,16.40
2023-04-15T18:53:22.069Z,17.27
2023-04-15T18:55:49.820Z,16.33
2023-04-15T18:58:18.890Z,17.37
2023-04-15T19:00:46.668Z,18.00
2023-04-15T19:03:14.736Z,18.73
2023-04-15T19:05:42.604Z,17.83
2023-04-15T19:08:11.242Z,17.77
2023-04-15T19:10:39.636Z,17.97
2023-04-15T19:13:07.472Z,17.37
2023-04-15T19:15:36.635Z,17.67
2023-04-15T19:18:10.322Z,16.80
2023-04-15T19:20:40.011Z,17.10
2023-04-15T19:23:08.364Z,17.27
2023-04-15T19:25:36.101Z,16.37
2023-04-15T19:28:03.889Z,17.47
2023-04-15T19:30:33.017Z,17.37
2023-04-15T19:33:02.221Z,16.47
2023-04-15T19:35:30.033Z,17.57
2023-04-15T19:37:57.888Z,16.77
2023-04-15T19:40:25.959Z,17.63
2023-04-15T19:42:53.688Z,16.93
2023-04-15T19:45:21.410Z,16.93
2023-04-15T19:47:49.330Z,16.73
2023-04-15T19:50:24.583Z,18.37
2023-04-15T19:52:52.465Z,15.93
2023-04-15T19:55:20.429Z,17.03
2023-04-15T19:57:48.179Z,16.97
2023-04-15T20:00:16.318Z,17.73
2023-04-15T20:02:44.072Z,17.17
2023-04-15T20:05:12.659Z,15.77
2023-04-15T20:07:42.568Z,16.53
2023-04-15T20:10:13.250Z,15.53
2023-04-15T20:12:49.256Z,16.80
2023-04-15T20:15:20.926Z,16.80
2023-04-15T20:17:48.675Z,15.20
2023-04-15T20:20:16.654Z,16.37
2023-04-15T20:22:45.714Z,16.40
2023-04-15T20:25:13.728Z,15.87
2023-04-15T20:27:41.477Z,16.53
2023-04-15T20:30:10.302Z,16.83
2023-04-15T20:32:38.752Z,16.30
2023-04-15T20:35:07.868Z,17.00
2023-04-15T20:37:36.263Z,16.63
2023-04-15T20:40:08.967Z,16.67
2023-04-15T20:42:36.682Z,16.23
2023-04-15T20:45:07.087Z,16.03
2023-04-15T20:47:34.817Z,16.13
2023-04-15T20:50:02.668Z,15.80
2023-04-15T20:52:30.457Z,16.07
2023-04-15T20:54:58.251Z,15.73
2023-04-15T20:57:28.796Z,16.13
2023-04-15T20:59:56.781Z,16.50
2023-04-15T21:02:24.971Z,17.53
2023-04-15T21:04:52.935Z,14.87
2023-04-15T21:07:20.732Z,17.57
2023-04-15T21:09:49.236Z,15.33
2023-04-15T21:12:17.169Z,15.70
2023-04-15T21:14:46.345Z,16.20
2023-04-15T21:17:14.224Z,17.33
2023-04-15T21:19:42.289Z,17.00
2023-04-15T21:22:10.186Z,16.60
2023-04-15T21:24:38.086Z,16.90
2023-04-15T21:27:06.176Z,15.97
2023-04-15T21:29:33.974Z,16.00
2023-04-15T21:32:03.302Z,15.73
2023-04-15T21:34:30.965Z,16.67
2023-04-15T21:36:58.685Z,15.37
2023-04-15T21:39:26.434Z,15.60
2023-04-15T21:41:54.255Z,16.37
2023-04-15T21:44:22.188Z,16.60
2023-04-15T21:46:51.530Z,17.10
2023-04-15T21:49:21.833Z,17.60
2023-04-15T21:51:50.398Z,16.63
2023-04-15T21:54:18.278Z,17.57
2023-04-15T21:56:46.052Z,16.97
2023-04-15T21:59:13.786Z,15.77
2023-04-15T22:01:41.544Z,16.60
2023-04-15T22:04:10.918Z,16.73
2023-04-15T22:06:40.700Z,17.83
2023-04-15T22:09:08.538Z,17.47
2023-04-15T22:11:36.306Z,17.33
2023-04-15T22:14:05.944Z,17.23
2023-04-15T22:16:33.732Z,16.50
2023-04-15T22:19:02.647Z,17.53
2023-04-15T22:21:30.486Z,16.43
2023-04-15T22:24:32.602Z,16.13
2023-04-15T22:26:47.249Z,16.37
2023-04-15T22:29:15.020Z,18.00
2023-04-15T22:31:42.872Z,17.53
2023-04-15T22:34:10.555Z,18.70
2023-04-15T22:36:38.531Z,18.03
2023-04-15T22:39:07.794Z,18.03
2023-04-15T22:41:35.580Z,18.30
2023-04-15T22:44:03.264Z,17.50
2023-04-15T22:46:31.258Z,17.80
2023-04-15T22:48:58.999Z,17.60
2023-04-15T22:51:28.030Z,17.03
2023-04-15T22:53:56.509Z,17.37
2023-04-15T22:56:25.587Z,17.60
2023-04-15T22:58:53.506Z,18.03
2023-04-15T23:01:21.463Z,17.50
2023-04-15T23:03:55.611Z,17.47
2023-04-15T23:06:27.294Z,18.17
2023-04-15T23:08:55.334Z,17.70
2023-04-15T23:11:23.076Z,18.53
2023-04-15T23:13:53.067Z,19.20
2023-04-15T23:16:20.973Z,18.73
2023-04-15T23:18:48.726Z,18.63
2023-04-15T23:21:17.022Z,16.87
2023-04-15T23:23:44.688Z,18.33
2023-04-15T23:26:12.341Z,18.73
2023-04-15T23:28:40.109Z,18.40
2023-04-15T23:31:09.168Z,17.43
2023-04-15T23:33:38.108Z,17.03
2023-04-15T23:36:06.701Z,17.70
2023-04-15T23:38:34.411Z,18.00
2023-04-15T23:41:02.171Z,18.27
2023-04-15T23:43:29.997Z,17.93
2023-04-15T23:45:57.722Z,18.03
2023-04-15T23:48:26.823Z,19.00
2023-04-15T23:50:54.537Z,18.83
2023-04-15T23:53:22.242Z,19.07
2023-04-15T23:55:49.930Z,19.23
2023-04-15T23:58:17.637Z,19.03
